Time;durP1;ratioP1;P1;durP2;ratioP2;P2;SDS_P1;SDS_P2;PMS_P1;PMS_P2;Temp;Humidity;BMP_temperature;BMP_pressure;BME280_temperature;BME280_humidity;BME280_pressure;Samples;Min_cycle;Max_cycle;Signal;HPM_P1;HPM_P2
2023/11/20 00:00:38;;;;;;;;;;;;;;;19.00;59.80;100607.78;7392069;19;1588;-45
2023/11/20 00:03:06;;;;;;;;;;;;;;;18.95;59.98;100607.34;7391369;19;1581;-46
2023/11/20 00:05:34;;;;;;;;;;;;;;;18.98;60.04;100619.59;7389650;19;1356;-46
2023/11/20 00:08:03;;;;;;;;;;;;;;;18.93;60.09;100592.41;7391022;19;1557;-45
2023/11/20 00:10:31;;;;;;;;;;;;;;;18.91;60.13;100613.13;7392414;19;1500;-45
2023/11/20 00:12:59;;;;;;;;;;;;;;;19.02;59.76;100616.53;7390703;19;1287;-46
2023/11/20 00:15:28;;;;;;;;;;;;;;;19.05;59.57;100624.28;7396556;19;1884;-46
2023/11/20 00:17:59;;;;;;;;;;;;;;;19.06;59.49;100614.44;7397882;19;1395;-45
2023/11/20 00:20:27;;;;;;;;;;;;;;;18.98;59.63;100620.47;7397753;19;1595;-45
2023/11/20 00:22:56;;;;;;;;;;;;;;;18.90;60.06;100616.78;7398444;19;1491;-45
2023/11/20 00:25:24;;;;;;;;;;;;;;;18.87;60.17;100628.63;7398193;19;1491;-46
2023/11/20 00:27:52;;;;;;;;;;;;;;;18.86;60.33;100632.28;7382431;19;1558;-45
2023/11/20 00:30:21;;;;;;;;;;;;;;;18.81;60.40;100640.75;7395350;19;1457;-46
2023/11/20 00:32:49;;;;;;;;;;;;;;;18.78;60.35;100622.25;7394987;19;1848;-45
2023/11/20 00:35:20;;;;;;;;;;;;;;;18.79;60.52;100639.16;7396887;19;1487;-45
2023/11/20 00:37:48;;;;;;;;;;;;;;;18.75;60.48;100635.91;7397912;19;1448;-46
2023/11/20 00:40:17;;;;;;;;;;;;;;;18.76;60.53;100631.38;7398118;19;1847;-46
2023/11/20 00:42:46;;;;;;;;;;;;;;;18.76;60.35;100642.97;7396437;19;1566;-46
2023/11/20 00:45:11;;;;;;;;;;;;;;;18.73;60.47;100653.09;7397391;19;1950;-46
2023/11/20 00:47:40;;;;;;;;;;;;;;;18.73;60.43;100647.75;7397807;19;1436;-45
2023/11/20 00:50:09;;;;;;;;;;;;;;;18.77;60.17;100647.31;7395444;19;1331;-46
2023/11/20 00:52:40;;;;;;;;;;;;;;;18.83;60.06;100643.28;7395101;19;1855;-45
2023/11/20 00:55:12;;;;;;;;;;;;;;;18.81;60.10;100664.84;7396683;19;1848;-45
2023/11/20 00:57:40;;;;;;;;;;;;;;;18.78;60.34;100661.56;7396715;19;1488;-46
2023/11/20 01:00:11;;;;;;;;;;;;;;;18.74;60.51;100670.84;7394298;19;1549;-45
2023/11/20 01:02:40;;;;;;;;;;;;;;;18.69;60.37;100649.84;7398049;19;1547;-45
2023/11/20 01:05:09;;;;;;;;;;;;;;;18.67;60.46;100644.63;7396920;19;1506;-45
2023/11/20 01:07:40;;;;;;;;;;;;;;;18.71;60.27;100641.69;7394088;19;1475;-45
2023/11/20 01:10:09;;;;;;;;;;;;;;;18.71;60.23;100661.28;7394504;19;1743;-46
2023/11/20 01:12:37;;;;;;;;;;;;;;;18.71;60.30;100660.44;7394460;19;1814;-45
2023/11/20 01:15:06;;;;;;;;;;;;;;;18.72;60.88;100664.78;7394035;19;1450;-45
2023/11/20 01:17:35;;;;;;;;;;;;;;;18.68;60.68;100673.09;7394360;19;1579;-45
2023/11/20 01:20:03;;;;;;;;;;;;;;;18.66;60.91;100667.03;7394877;19;1423;-45
2023/11/20 01:22:31;;;;;;;;;;;;;;;18.65;60.56;100659.13;7393739;19;1577;-45
2023/11/20 01:25:03;;;;;;;;;;;;;;;18.66;60.43;100658.13;7391425;19;1569;-45
2023/11/20 01:27:31;;;;;;;;;;;;;;;18.69;60.44;100653.34;7385233;19;1432;-45
2023/11/20 01:30:00;;;;;;;;;;;;;;;18.72;60.39;100649.59;7390329;19;1600;-46
2023/11/20 01:32:28;;;;;;;;;;;;;;;18.67;60.77;100659.84;7393151;19;1885;-46
2023/11/20 01:34:57;;;;;;;;;;;;;;;18.46;60.86;100627.75;7393879;19;1496;-46
2023/11/20 01:37:25;;;;;;;;;;;;;;;18.62;61.19;100657.59;7395305;19;1405;-45
2023/11/20 01:39:54;;;;;;;;;;;;;;;18.57;61.12;100659.81;7393282;19;1381;-45
2023/11/20 01:42:24;;;;;;;;;;;;;;;18.59;61.13;100663.19;7394354;19;1914;-45
2023/11/20 01:44:53;;;;;;;;;;;;;;;18.57;61.36;100659.81;7394538;19;1644;-45
2023/11/20 01:47:22;;;;;;;;;;;;;;;18.59;61.26;100679.25;7393945;19;1494;-46
2023/11/20 01:49:50;;;;;;;;;;;;;;;18.57;61.35;100681.22;7393582;19;1481;-45
2023/11/20 01:52:19;;;;;;;;;;;;;;;18.56;61.29;100678.69;7392498;19;1927;-46
2023/11/20 01:54:47;;;;;;;;;;;;;;;18.54;61.16;100670.78;7392697;19;1554;-46
2023/11/20 01:57:15;;;;;;;;;;;;;;;18.55;60.88;100672.50;7388926;19;1711;-46
2023/11/20 01:59:47;;;;;;;;;;;;;;;18.55;60.92;100667.13;7388022;19;1612;-46
2023/11/20 02:02:15;;;;;;;;;;;;;;;18.56;60.79;100665.28;7392049;19;1395;-46
2023/11/20 02:04:44;;;;;;;;;;;;;;;18.56;60.85;100663.50;7393161;19;1537;-45
2023/11/20 02:07:12;;;;;;;;;;;;;;;18.55;61.04;100666.28;7233754;19;3103161;-45
2023/11/20 02:09:40;;;;;;;;;;;;;;;18.54;60.89;100668.09;7394661;19;1395;-45
2023/11/20 02:12:09;;;;;;;;;;;;;;;18.53;61.20;100653.03;7392581;19;1862;-47
2023/11/20 02:14:38;;;;;;;;;;;;;;;18.51;61.23;100662.19;7395775;19;1652;-45
2023/11/20 02:17:10;;;;;;;;;;;;;;;18.49;61.08;100665.00;7395742;19;1447;-46
2023/11/20 02:19:38;;;;;;;;;;;;;;;18.48;60.83;100666.84;7394788;19;1640;-45
2023/11/20 02:22:07;;;;;;;;;;;;;;;18.55;60.65;100656.41;7393465;19;1490;-45
2023/11/20 02:24:35;;;;;;;;;;;;;;;19.07;59.22;100657.16;7393007;19;1458;-45
2023/11/20 02:27:14;;;;;;;;;;;;;;;19.65;57.95;100672.41;7390786;19;2632;-45
2023/11/20 02:29:53;;;;;;;;;;;;;;;20.66;55.51;100648.59;7379653;19;1629;-46
2023/11/20 02:32:22;;;;;;;;;;;;;;;21.22;54.02;100646.69;7393511;19;1868;-47
2023/11/20 02:34:51;;;;;;;;;;;;;;;21.41;53.52;100645.72;7393567;19;1481;-45
2023/11/20 02:37:19;;;;;;;;;;;;;;;21.35;53.84;100656.25;7392801;19;1715;-46
2023/11/20 02:39:49;;;;;;;;;;;;;;;21.28;54.05;100639.84;7393519;19;1953;-46
2023/11/20 02:42:18;;;;;;;;;;;;;;;21.33;54.18;100639.38;7393974;19;1506;-46
2023/11/20 02:44:46;;;;;;;;;;;;;;;21.36;53.91;100642.63;7394851;19;1444;-45
2023/11/20 02:47:17;;;;;;;;;;;;;;;21.47;53.83;100643.41;7393773;19;1601;-46
2023/11/20 02:49:43;;;;;;;;;;;;;;;21.49;53.76;100614.50;7392313;19;1697;-46
2023/11/20 02:52:11;;;;;;;;;;;;;;;21.50;54.06;100621.59;7392311;19;1851;-45
2023/11/20 02:54:40;;;;;;;;;;;;;;;21.56;53.61;100607.50;7393304;19;1546;-47
2023/11/20 02:57:08;;;;;;;;;;;;;;;21.45;53.98;100616.69;7393766;19;1755;-46
2023/11/20 02:59:36;;;;;;;;;;;;;;;21.68;53.49;100606.25;7392762;19;1531;-45
2023/11/20 03:02:05;;;;;;;;;;;;;;;21.67;53.61;100609.97;7393314;19;2057;-45
2023/11/20 03:04:37;;;;;;;;;;;;;;;21.68;53.59;100598.19;7393441;19;1367;-45
2023/11/20 03:07:06;;;;;;;;;;;;;;;21.69;53.42;100616.03;7391105;19;1922;-45
2023/11/20 03:09:35;;;;;;;;;;;;;;;21.56;53.76;100611.03;7392850;19;1598;-45
2023/11/20 03:12:03;;;;;;;;;;;;;;;21.54;54.23;100606.81;7392762;19;1845;-45
2023/11/20 03:14:32;;;;;;;;;;;;;;;21.46;54.18;100604.91;7393293;19;1502;-46
2023/11/20 03:17:01;;;;;;;;;;;;;;;21.51;54.33;100605.31;7392617;19;1385;-45
2023/11/20 03:19:29;;;;;;;;;;;;;;;21.45;54.20;100614.84;7390899;19;2504;-45
2023/11/20 03:22:00;;;;;;;;;;;;;;;21.54;54.05;100602.28;7392862;19;1497;-45
2023/11/20 03:24:28;;;;;;;;;;;;;;;21.56;54.06;100610.22;7392931;19;1533;-45
2023/11/20 03:26:56;;;;;;;;;;;;;;;21.48;54.32;100604.75;7393531;19;1198;-46
2023/11/20 03:29:25;;;;;;;;;;;;;;;21.45;54.16;100608.63;7378781;19;1316;-45
2023/11/20 03:31:53;;;;;;;;;;;;;;;21.52;54.08;100600.75;7392251;19;1878;-46
2023/11/20 03:34:21;;;;;;;;;;;;;;;21.53;53.98;100600.59;7391332;19;1552;-45
2023/11/20 03:36:50;;;;;;;;;;;;;;;21.51;54.07;100597.22;7393059;19;1387;-45
2023/11/20 03:39:21;;;;;;;;;;;;;;;21.54;53.92;100583.44;7391289;19;1582;-45
2023/11/20 03:41:49;;;;;;;;;;;;;;;21.61;53.74;100581.84;7392562;19;1256;-45
2023/11/20 03:44:17;;;;;;;;;;;;;;;21.69;53.76;100594.50;7393031;19;1542;-45
2023/11/20 03:46:45;;;;;;;;;;;;;;;21.61;53.94;100602.53;7389645;19;1519;-45
2023/11/20 03:49:14;;;;;;;;;;;;;;;21.55;54.00;100581.63;7391905;19;1565;-46
2023/11/20 03:51:42;;;;;;;;;;;;;;;21.56;53.68;100575.22;7389605;19;1518;-46
2023/11/20 03:54:10;;;;;;;;;;;;;;;21.63;53.96;100579.00;7389808;19;1859;-45
2023/11/20 03:56:41;;;;;;;;;;;;;;;21.26;54.27;100593.44;7391360;19;1628;-45
2023/11/20 03:59:10;;;;;;;;;;;;;;;20.79;55.48;100604.41;7392783;19;1421;-45
2023/11/20 04:01:38;;;;;;;;;;;;;;;20.45;56.04;100608.53;7390629;19;1915;-45
2023/11/20 04:04:08;;;;;;;;;;;;;;;20.29;56.33;100580.63;7391741;19;1475;-45
2023/11/20 04:06:36;;;;;;;;;;;;;;;20.11;56.74;100589.44;7390668;19;1642;-45
2023/11/20 04:09:05;;;;;;;;;;;;;;;20.08;56.73;100607.72;7390154;19;1495;-45
2023/11/20 04:11:33;;;;;;;;;;;;;;;19.97;57.22;100632.88;7391069;19;1447;-45
2023/11/20 04:14:04;;;;;;;;;;;;;;;19.85;57.09;100619.59;7388830;19;1839;-46
2023/11/20 04:16:32;;;;;;;;;;;;;;;19.81;57.26;100612.84;7391332;19;1445;-45
2023/11/20 04:19:01;;;;;;;;;;;;;;;19.84;57.16;100609.88;7389220;19;1420;-45
2023/11/20 04:21:30;;;;;;;;;;;;;;;19.85;57.33;100599.97;7391248;19;1530;-45
2023/11/20 04:23:58;;;;;;;;;;;;;;;19.90;56.96;100596.88;7388985;19;1538;-46
2023/11/20 04:26:27;;;;;;;;;;;;;;;19.77;57.24;100589.97;7390982;19;1648;-45
2023/11/20 04:28:56;;;;;;;;;;;;;;;19.75;57.30;100605.38;7376523;19;1479;-45
2023/11/20 04:31:27;;;;;;;;;;;;;;;19.68;57.43;100591.66;7391000;19;1538;-45
2023/11/20 04:33:55;;;;;;;;;;;;;;;19.64;56.19;100584.06;7389806;19;1843;-45
2023/11/20 04:36:24;;;;;;;;;;;;;;;19.43;55.28;100577.00;7392306;19;1579;-45
2023/11/20 04:38:52;;;;;;;;;;;;;;;19.44;56.10;100594.81;7389494;19;1781;-45
2023/11/20 04:41:20;;;;;;;;;;;;;;;19.44;57.21;100589.44;7391265;19;1533;-45
2023/11/20 04:43:48;;;;;;;;;;;;;;;19.86;56.93;100594.47;7390787;19;1578;-45
2023/11/20 04:46:17;;;;;;;;;;;;;;;20.29;56.16;100599.41;7388751;19;1359;-45
2023/11/20 04:48:48;;;;;;;;;;;;;;;20.58;55.82;100594.75;7385657;19;1568;-45
2023/11/20 04:51:21;;;;;;;;;;;;;;;20.11;55.71;100581.38;7389596;19;1530;-45
2023/11/20 04:53:50;;;;;;;;;;;;;;;19.80;55.91;100591.53;7389185;19;1857;-46
2023/11/20 04:56:18;;;;;;;;;;;;;;;19.86;56.41;100578.38;7390753;19;1515;-46
2023/11/20 04:58:46;;;;;;;;;;;;;;;20.24;55.82;100584.59;7390197;19;1582;-45
2023/11/20 05:01:16;;;;;;;;;;;;;;;20.71;54.54;100596.25;7396872;19;1569;-45
2023/11/20 05:03:44;;;;;;;;;;;;;;;20.80;54.23;100588.13;7399910;19;1190;-45
2023/11/20 05:06:15;;;;;;;;;;;;;;;20.72;54.48;100595.28;7398162;19;1902;-45
2023/11/20 05:08:44;;;;;;;;;;;;;;;20.68;54.62;100592.03;7397128;19;1483;-45
2023/11/20 05:11:13;;;;;;;;;;;;;;;20.62;54.52;100601.53;7395802;19;1592;-45
2023/11/20 05:13:41;;;;;;;;;;;;;;;20.73;54.89;100594.25;7395684;19;1843;-45
2023/11/20 05:16:11;;;;;;;;;;;;;;;20.78;54.66;100600.03;7395383;19;1979;-45
2023/11/20 05:18:39;;;;;;;;;;;;;;;20.83;54.65;100601.28;7393505;19;1468;-48
2023/11/20 05:21:08;;;;;;;;;;;;;;;20.75;54.87;100600.31;7396575;19;1375;-48
2023/11/20 05:23:39;;;;;;;;;;;;;;;20.75;55.28;100603.88;7397038;19;1448;-47
2023/11/20 05:26:09;;;;;;;;;;;;;;;20.84;55.30;100607.50;7394363;19;1368;-48
2023/11/20 05:28:37;;;;;;;;;;;;;;;20.84;55.31;100610.19;7397243;19;1377;-48
2023/11/20 05:31:06;;;;;;;;;;;;;;;20.79;55.23;100604.41;7383072;19;1432;-50
2023/11/20 05:33:34;;;;;;;;;;;;;;;20.78;55.37;100595.50;7396495;19;1858;-50
2023/11/20 05:36:03;;;;;;;;;;;;;;;20.86;55.46;100613.56;7396429;19;1511;-48
2023/11/20 05:38:32;;;;;;;;;;;;;;;20.99;54.97;100605.97;7396776;19;1570;-49
2023/11/20 05:41:03;;;;;;;;;;;;;;;20.92;55.26;100612.13;7395512;19;1617;-48
2023/11/20 05:43:32;;;;;;;;;;;;;;;20.63;55.69;100614.00;7395686;19;1471;-45
2023/11/20 05:46:00;;;;;;;;;;;;;;;20.32;56.37;100601.81;7392433;19;1578;-45
2023/11/20 05:48:28;;;;;;;;;;;;;;;20.15;56.74;100598.88;7396050;19;1503;-45
2023/11/20 05:50:57;;;;;;;;;;;;;;;20.04;57.09;100591.03;7396248;19;1819;-47
2023/11/20 05:53:25;;;;;;;;;;;;;;;20.40;56.41;100602.75;7394075;19;1842;-45
2023/11/20 05:55:53;;;;;;;;;;;;;;;20.64;55.87;100583.44;7396353;19;1597;-45
2023/11/20 05:58:24;;;;;;;;;;;;;;;20.46;56.56;100586.03;7397361;19;1568;-45
2023/11/20 06:00:53;;;;;;;;;;;;;;;20.25;57.51;100588.97;7397026;19;1818;-45
2023/11/20 06:03:21;;;;;;;;;;;;;;;20.09;57.86;100598.66;7396518;19;1525;-45
2023/11/20 06:05:49;;;;;;;;;;;;;;;20.24;57.96;100599.88;7393857;19;1555;-45
2023/11/20 06:08:18;;;;;;;;;;;;;;;20.68;57.60;100615.38;7395613;19;1598;-45
2023/11/20 06:10:46;;;;;;;;;;;;;;;20.51;57.50;100617.81;7394468;19;1442;-46
2023/11/20 06:13:14;;;;;;;;;;;;;;;19.95;50.68;100608.84;7393975;19;1882;-45
2023/11/20 06:15:45;;;;;;;;;;;;;;;19.30;50.20;100616.69;7396137;19;1553;-46
2023/11/20 06:18:13;;;;;;;;;;;;;;;18.29;44.69;100615.88;7389218;19;1867;-45
2023/11/20 06:20:43;;;;;;;;;;;;;;;18.25;43.52;100625.16;7392003;19;1542;-46
2023/11/20 06:23:11;;;;;;;;;;;;;;;18.12;43.21;100625.38;7390090;19;1551;-45
2023/11/20 06:25:39;;;;;;;;;;;;;;;18.01;42.74;100636.16;7391094;19;1530;-46
2023/11/20 06:28:08;;;;;;;;;;;;;;;17.76;42.71;100624.84;7391865;19;1625;-47
2023/11/20 06:30:36;;;;;;;;;;;;;;;17.21;43.08;100570.69;7377193;19;1509;-45
2023/11/20 06:33:07;;;;;;;;;;;;;;;17.57;42.49;100654.16;7393438;19;1851;-45
2023/11/20 06:35:35;;;;;;;;;;;;;;;17.68;42.39;100648.72;7391389;19;1426;-46
2023/11/20 06:38:03;;;;;;;;;;;;;;;17.76;43.10;100659.63;7386596;19;1491;-52
2023/11/20 06:40:34;;;;;;;;;;;;;;;18.01;42.37;100657.56;7392359;19;1537;-52
2023/11/20 06:43:04;;;;;;;;;;;;;;;18.14;45.34;100655.50;7392943;19;1554;-49
2023/11/20 06:45:32;;;;;;;;;;;;;;;18.37;46.31;100647.34;7392262;19;1817;-48
2023/11/20 06:48:00;;;;;;;;;;;;;;;18.53;46.70;100650.34;7390636;19;1675;-49
2023/11/20 06:50:32;;;;;;;;;;;;;;;18.66;46.74;100650.09;7393239;19;1431;-51
2023/11/20 06:53:02;;;;;;;;;;;;;;;18.95;46.71;100644.84;7392222;19;1839;-46
2023/11/20 06:55:30;;;;;;;;;;;;;;;19.03;46.81;100654.88;7389105;19;1391;-46
2023/11/20 06:57:58;;;;;;;;;;;;;;;19.01;47.53;100657.69;7390211;19;1367;-45
2023/11/20 07:00:27;;;;;;;;;;;;;;;18.74;48.21;100657.47;7393913;19;1522;-45
2023/11/20 07:02:55;;;;;;;;;;;;;;;18.56;46.56;100662.63;7394588;19;1494;-42
2023/11/20 07:05:24;;;;;;;;;;;;;;;18.51;49.10;100644.28;7390477;19;1431;-42
2023/11/20 07:07:55;;;;;;;;;;;;;;;18.49;49.19;100649.78;7390115;19;1409;-42
2023/11/20 07:10:25;;;;;;;;;;;;;;;18.75;49.36;100665.38;7391633;19;1465;-42
2023/11/20 07:12:54;;;;;;;;;;;;;;;18.92;49.23;100631.75;7389293;19;1562;-42
2023/11/20 07:15:22;;;;;;;;;;;;;;;19.02;49.26;100631.75;7390573;19;1563;-42
2023/11/20 07:17:51;;;;;;;;;;;;;;;19.12;49.24;100631.75;7390746;19;1533;-42
2023/11/20 07:20:20;;;;;;;;;;;;;;;19.12;49.19;100643.34;7390669;19;1592;-42
2023/11/20 07:22:49;;;;;;;;;;;;;;;19.11;49.46;100640.81;7389034;19;1390;-42
2023/11/20 07:25:19;;;;;;;;;;;;;;;19.19;49.42;100643.63;7390323;19;1554;-42
2023/11/20 07:27:48;;;;;;;;;;;;;;;19.14;49.73;100640.50;7393782;19;1469;-42
2023/11/20 07:30:16;;;;;;;;;;;;;;;19.21;49.78;100650.53;7394185;19;1479;-42
2023/11/20 07:32:45;;;;;;;;;;;;;;;19.22;50.05;100627.28;7394445;19;1176;-42
2023/11/20 07:35:14;;;;;;;;;;;;;;;19.25;50.32;100632.34;7391136;19;1854;-42
2023/11/20 07:37:42;;;;;;;;;;;;;;;19.23;50.31;100637.00;7393764;19;1482;-42
2023/11/20 07:40:11;;;;;;;;;;;;;;;19.20;50.43;100630.09;7394220;19;1558;-42
2023/11/20 07:42:43;;;;;;;;;;;;;;;19.10;50.88;100636.41;7393274;19;1854;-42
2023/11/20 07:45:12;;;;;;;;;;;;;;;18.97;51.18;100624.13;7393763;19;1368;-42
2023/11/20 07:47:41;;;;;;;;;;;;;;;18.99;51.53;100632.88;7393548;19;1533;-41
2023/11/20 07:50:10;;;;;;;;;;;;;;;19.10;51.37;100641.78;7391785;19;1388;-42
2023/11/20 07:52:39;;;;;;;;;;;;;;;19.04;51.67;100641.38;7393414;19;1530;-42
2023/11/20 07:55:08;;;;;;;;;;;;;;;19.10;51.65;100631.06;7392781;19;1847;-42
2023/11/20 07:57:36;;;;;;;;;;;;;;;19.19;51.65;100627.53;7393242;19;1803;-42
2023/11/20 08:00:11;;;;;;;;;;;;;;;19.19;51.42;100627.53;7392714;19;1840;-42
2023/11/20 08:02:39;;;;;;;;;;;;;;;19.23;51.32;100639.69;7392633;19;1515;-42
2023/11/20 08:05:09;;;;;;;;;;;;;;;19.19;51.60;100657.03;7393154;19;1634;-41
2023/11/20 08:07:38;;;;;;;;;;;;;;;19.13;52.12;100649.56;7389576;19;1534;-42
2023/11/20 08:10:09;;;;;;;;;;;;;;;19.07;52.05;100646.44;7392397;19;1555;-42
2023/11/20 08:12:37;;;;;;;;;;;;;;;19.10;51.80;100637.28;7391973;19;1486;-41
2023/11/20 08:15:11;;;;;;;;;;;;;;;19.06;51.65;100634.03;7390956;19;1859;-42
2023/11/20 08:17:40;;;;;;;;;;;;;;;19.10;51.76;100642.66;7392726;19;1483;-42
2023/11/20 08:20:09;;;;;;;;;;;;;;;19.11;51.71;100638.97;7392440;19;1581;-42
2023/11/20 08:22:36;;;;;;;;;;;;;;;19.10;52.05;100639.09;7392454;19;1617;-42
2023/11/20 08:25:04;;;;;;;;;;;;;;;19.11;52.12;100643.47;7392234;19;1640;-42
2023/11/20 08:27:33;;;;;;;;;;;;;;;19.08;52.19;100637.41;7392804;19;1507;-42
2023/11/20 08:30:02;;;;;;;;;;;;;;;19.07;52.45;100632.19;7393311;19;1555;-42
2023/11/20 08:32:33;;;;;;;;;;;;;;;19.12;52.48;100631.75;7393808;19;1482;-42
2023/11/20 08:35:01;;;;;;;;;;;;;;;19.13;52.22;100612.03;7392770;19;1825;-42
2023/11/20 08:37:29;;;;;;;;;;;;;;;19.10;52.52;100602.44;7400418;19;1562;-42
2023/11/20 08:39:59;;;;;;;;;;;;;;;19.11;52.46;100614.84;7400536;19;1597;-42
2023/11/20 08:42:27;;;;;;;;;;;;;;;19.12;52.67;100610.31;7399556;19;1553;-42
2023/11/20 08:44:56;;;;;;;;;;;;;;;19.08;52.71;100594.53;7399564;19;1557;-41
2023/11/20 08:47:24;;;;;;;;;;;;;;;19.04;52.84;100581.56;7400477;19;1526;-41
2023/11/20 08:49:55;;;;;;;;;;;;;;;18.76;52.84;100524.22;7400098;19;1291;-42
2023/11/20 08:52:24;;;;;;;;;;;;;;;19.10;53.02;100572.97;7400328;19;1164;-41
2023/11/20 08:54:54;;;;;;;;;;;;;;;19.20;52.82;100581.84;7397583;19;1867;-42
2023/11/20 08:57:22;;;;;;;;;;;;;;;19.18;52.76;100577.59;7399100;19;1455;-42
2023/11/20 08:59:51;;;;;;;;;;;;;;;19.19;52.87;100565.88;7398881;19;1428;-42
2023/11/20 09:02:19;;;;;;;;;;;;;;;19.14;53.19;100594.94;7396060;19;1458;-42
2023/11/20 09:04:47;;;;;;;;;;;;;;;19.11;53.20;100565.75;7398868;19;1658;-42
2023/11/20 09:07:19;;;;;;;;;;;;;;;19.08;53.14;100551.66;7399883;19;1238;-42
2023/11/20 09:09:47;;;;;;;;;;;;;;;19.15;53.17;100567.16;7399074;19;1563;-41
2023/11/20 09:12:16;;;;;;;;;;;;;;;19.11;53.31;100555.03;7396795;19;2634;-42
2023/11/20 09:14:44;;;;;;;;;;;;;;;19.05;53.38;100551.06;7397042;19;1856;-42
2023/11/20 09:17:14;;;;;;;;;;;;;;;19.01;53.69;100549.66;7398549;19;1593;-42
2023/11/20 09:19:42;;;;;;;;;;;;;;;18.98;53.65;100545.44;7398024;19;1506;-42
2023/11/20 09:22:10;;;;;;;;;;;;;;;19.03;53.37;100547.69;7399180;19;1495;-42
2023/11/20 09:24:41;;;;;;;;;;;;;;;18.99;53.59;100544.44;7397846;19;1934;-42
2023/11/20 09:27:10;;;;;;;;;;;;;;;18.96;53.75;100550.09;7399099;19;1577;-42
2023/11/20 09:29:39;;;;;;;;;;;;;;;18.94;53.97;100553.88;7398600;19;1571;-42
2023/11/20 09:32:08;;;;;;;;;;;;;;;18.93;53.92;100542.34;7397758;19;1566;-42
2023/11/20 09:34:36;;;;;;;;;;;;;;;18.98;53.76;100547.25;7397016;19;1881;-42
2023/11/20 09:37:05;;;;;;;;;;;;;;;18.99;53.81;100541.75;7398627;19;1843;-42
2023/11/20 09:39:34;;;;;;;;;;;;;;;19.01;53.46;100550.50;7397697;19;1417;-42
2023/11/20 09:42:05;;;;;;;;;;;;;;;19.10;53.56;100531.88;7397514;19;1447;-42
2023/11/20 09:44:37;;;;;;;;;;;;;;;19.13;53.41;100542.34;7397880;19;1196;-42
2023/11/20 09:47:06;;;;;;;;;;;;;;;19.13;53.74;100535.13;7397983;19;1224;-42
2023/11/20 09:49:35;;;;;;;;;;;;;;;19.15;53.70;100538.50;7397614;19;1497;-42
2023/11/20 09:52:03;;;;;;;;;;;;;;;19.04;53.92;100531.47;7397436;19;1648;-42
2023/11/20 09:54:34;;;;;;;;;;;;;;;19.03;53.82;100524.41;7396322;19;1859;-41
2023/11/20 09:57:05;;;;;;;;;;;;;;;19.05;54.10;100527.78;7397146;19;1494;-42
2023/11/20 09:59:34;;;;;;;;;;;;;;;19.06;53.91;100542.06;7397902;19;1644;-42
2023/11/20 10:02:03;;;;;;;;;;;;;;;19.07;53.65;100527.66;7397344;19;1613;-49
2023/11/20 10:04:32;;;;;;;;;;;;;;;18.98;53.93;100523.13;7396424;19;1480;-42
2023/11/20 10:07:03;;;;;;;;;;;;;;;18.95;54.06;100518.91;7393854;19;1732;-42
2023/11/20 10:09:33;;;;;;;;;;;;;;;18.86;54.39;100514.38;7393069;19;1395;-42
2023/11/20 10:12:03;;;;;;;;;;;;;;;18.93;54.28;100520.91;7392974;19;1584;-42
2023/11/20 10:14:35;;;;;;;;;;;;;;;18.96;54.08;100528.66;7394948;19;1841;-42
2023/11/20 10:17:03;;;;;;;;;;;;;;;18.89;54.46;100524.84;7393389;19;1458;-42
2023/11/20 10:19:32;;;;;;;;;;;;;;;18.88;54.40;100529.38;7393891;19;1507;-40
2023/11/20 10:22:01;;;;;;;;;;;;;;;18.95;54.80;100535.00;7348347;19;1570;-44
2023/11/20 10:24:30;;;;;;;;;;;;;;;18.95;54.62;100535.00;7386749;19;1636;-44
2023/11/20 10:26:59;;;;;;;;;;;;;;;18.91;54.51;100506.78;7375613;19;1570;-44
2023/11/20 10:29:27;;;;;;;;;;;;;;;18.94;54.55;100513.69;7384610;19;1566;-44
2023/11/20 10:31:58;;;;;;;;;;;;;;;19.00;54.46;100530.06;7379640;19;1369;-44
2023/11/20 10:34:26;;;;;;;;;;;;;;;19.01;54.37;100526.38;7384070;19;1841;-44
2023/11/20 10:37:04;;;;;;;;;;;;;;;19.13;54.05;100539.66;7391009;19;1515;-44
2023/11/20 10:39:33;;;;;;;;;;;;;;;19.07;54.10;100520.47;7390411;19;1508;-44
2023/11/20 10:42:01;;;;;;;;;;;;;;;19.04;54.25;100510.03;7392301;19;1550;-44
2023/11/20 10:44:31;;;;;;;;;;;;;;;18.95;54.39;100512.72;7394765;19;1462;-44
2023/11/20 10:47:02;;;;;;;;;;;;;;;18.95;54.41;100502.00;7393699;19;1876;-44
2023/11/20 10:49:34;;;;;;;;;;;;;;;18.91;54.61;100488.03;7393303;19;1383;-44
2023/11/20 10:52:03;;;;;;;;;;;;;;;18.91;54.86;100508.63;7392869;19;1572;-44
2023/11/20 10:54:36;;;;;;;;;;;;;;;18.93;54.78;100509.34;7393875;19;1857;-45
2023/11/20 10:57:06;;;;;;;;;;;;;;;19.07;54.86;100509.75;7392078;19;1451;-44
2023/11/20 10:59:36;;;;;;;;;;;;;;;18.97;55.29;100516.94;7393969;19;1173;-44
2023/11/20 11:02:10;;;;;;;;;;;;;;;18.95;55.49;100502.00;7393108;19;1564;-44
2023/11/20 11:04:39;;;;;;;;;;;;;;;18.89;55.59;100522.16;7391494;19;1545;-45
2023/11/20 11:07:08;;;;;;;;;;;;;;;18.89;55.91;100500.72;7391075;19;1424;-44
2023/11/20 11:09:38;;;;;;;;;;;;;;;18.92;55.75;100510.31;7393196;19;1832;-44
2023/11/20 11:12:10;;;;;;;;;;;;;;;18.97;55.38;100489.31;7385148;19;1517;-45
2023/11/20 11:14:38;;;;;;;;;;;;;;;19.02;55.70;100487.03;7381502;19;1844;-45
2023/11/20 11:17:12;;;;;;;;;;;;;;;19.15;55.43;100481.38;7387820;19;1371;-44
2023/11/20 11:19:48;;;;;;;;;;;;;;;19.12;55.34;100481.66;7393263;19;1483;-44
2023/11/20 11:22:24;;;;;;;;;;;;;;;19.08;55.23;100479.28;7393134;19;1533;-44
2023/11/20 11:24:56;;;;;;;;;;;;;;;19.06;55.31;100470.53;7393202;19;1475;-44
2023/11/20 11:27:28;;;;;;;;;;;;;;;19.06;55.27;100477.75;7391225;19;1494;-44
2023/11/20 11:29:58;;;;;;;;;;;;;;;19.10;55.30;100462.19;7393322;19;1645;-44
2023/11/20 11:32:48;;;;;;;;;;;;;;;19.19;55.04;100462.19;7392582;19;1612;-44
2023/11/20 11:35:27;;;;;;;;;;;;;;;19.26;55.11;100481.25;7390746;19;1841;-44
2023/11/20 11:38:01;;;;;;;;;;;;;;;19.24;55.17;100478.69;7390201;19;1552;-44
2023/11/20 11:40:35;;;;;;;;;;;;;;;19.22;55.20;100471.78;7393122;19;1503;-45
2023/11/20 11:43:09;;;;;;;;;;;;;;;19.23;55.25;100479.66;7391376;19;1461;-44
2023/11/20 11:45:37;;;;;;;;;;;;;;;19.21;56.10;100454.00;7392021;19;1686;-44
2023/11/20 11:48:09;;;;;;;;;;;;;;;19.26;56.16;100479.41;7391346;19;1399;-44
2023/11/20 11:50:38;;;;;;;;;;;;;;;19.26;55.92;100473.19;7392255;19;1928;-44
2023/11/20 11:53:10;;;;;;;;;;;;;;;19.34;56.25;100470.63;7392134;19;1402;-44
2023/11/20 11:55:42;;;;;;;;;;;;;;;18.92;56.57;100371.84;7387046;19;1847;-44
2023/11/20 11:58:16;;;;;;;;;;;;;;;19.40;56.50;100461.16;7386105;19;1497;-44
2023/11/20 12:00:46;;;;;;;;;;;;;;;19.37;56.55;100459.59;7388508;19;1503;-44
2023/11/20 12:03:35;;;;;;;;;;;;;;;19.38;56.55;100453.25;7388170;19;1568;-44
2023/11/20 12:06:18;;;;;;;;;;;;;;;19.41;56.13;100479.78;7387225;19;1588;-44
2023/11/20 12:08:48;;;;;;;;;;;;;;;19.40;56.31;100448.59;7388542;19;1660;-44
2023/11/20 12:11:31;;;;;;;;;;;;;;;19.45;56.13;100462.41;7394246;19;1534;-44
2023/11/20 12:14:09;;;;;;;;;;;;;;;19.44;56.39;100452.69;7394361;19;1791;-44
2023/11/20 12:16:39;;;;;;;;;;;;;;;19.43;56.15;100461.69;7389881;19;1854;-43
2023/11/20 12:19:12;;;;;;;;;;;;;;;19.42;56.64;100451.16;7388886;19;1388;-44
2023/11/20 12:21:43;;;;;;;;;;;;;;;19.44;56.66;100457.19;7387054;19;1918;-44
2023/11/20 12:24:12;;;;;;;;;;;;;;;19.47;56.67;100463.09;7389120;19;1826;-44
2023/11/20 12:26:40;;;;;;;;;;;;;;;19.35;56.91;100440.13;7390385;19;1562;-44
2023/11/20 12:29:10;;;;;;;;;;;;;;;19.31;56.55;100438.75;7390405;19;1435;-44
2023/11/20 12:31:40;;;;;;;;;;;;;;;19.35;56.65;100434.78;7391260;19;1537;-44
2023/11/20 12:34:10;;;;;;;;;;;;;;;19.35;56.58;100418.69;7392381;19;1444;-44
2023/11/20 12:36:39;;;;;;;;;;;;;;;19.39;56.45;100457.63;7387405;19;1857;-44
2023/11/20 12:39:10;;;;;;;;;;;;;;;19.41;56.73;100452.13;7387970;19;1496;-44
2023/11/20 12:41:38;;;;;;;;;;;;;;;19.43;56.26;100436.72;7387893;19;1372;-44
2023/11/20 12:44:07;;;;;;;;;;;;;;;19.42;56.47;100441.25;7389914;19;1509;-44
2023/11/20 12:46:36;;;;;;;;;;;;;;;19.37;56.98;100456.09;7389517;19;1911;-43
2023/11/20 12:49:04;;;;;;;;;;;;;;;19.35;56.80;100450.84;7390890;19;1436;-44
2023/11/20 12:51:35;;;;;;;;;;;;;;;19.34;56.99;100449.19;7392046;19;1920;-44
2023/11/20 12:54:03;;;;;;;;;;;;;;;19.40;56.75;100456.66;7378464;19;1479;-44
2023/11/20 12:56:32;;;;;;;;;;;;;;;19.41;56.81;100460.16;7383217;19;2400;-44